sensor_id;sensor_type;location;lat;lon;timestamp;pressure;altitude;pressure_sealevel;temperature;humidity
78223;BME280;67497;53.058;21.618;2024-02-14T00:00:58;100818.53;;;1.68;89.25
78223;BME280;67497;53.058;21.618;2024-02-14T00:02:58;100825.09;;;1.64;89.21
78223;BME280;67497;53.058;21.618;2024-02-14T00:04:59;100819.69;;;1.64;89.50
78223;BME280;67497;53.058;21.618;2024-02-14T00:06:59;100817.31;;;1.58;89.38
78223;BME280;67497;53.058;21.618;2024-02-14T00:09:00;100818.44;;;1.54;89.51
78223;BME280;67497;53.058;21.618;2024-02-14T00:11:00;100825.59;;;1.55;89.45
78223;BME280;67497;53.058;21.618;2024-02-14T00:13:02;100834.63;;;1.54;90.05
78223;BME280;67497;53.058;21.618;2024-02-14T00:15:04;100831.31;;;1.49;89.99
78223;BME280;67497;53.058;21.618;2024-02-14T00:17:06;100830.38;;;1.50;90.58
78223;BME280;67497;53.058;21.618;2024-02-14T00:19:07;100829.50;;;1.50;90.45
78223;BME280;67497;53.058;21.618;2024-02-14T00:21:08;100834.16;;;1.46;90.76
78223;BME280;67497;53.058;21.618;2024-02-14T00:23:08;100836.09;;;1.44;91.33
78223;BME280;67497;53.058;21.618;2024-02-14T00:25:08;100837.59;;;1.50;91.45
78223;BME280;67497;53.058;21.618;2024-02-14T00:27:09;100835.66;;;1.52;91.40
78223;BME280;67497;53.058;21.618;2024-02-14T00:29:10;100833.06;;;1.50;91.09
78223;BME280;67497;53.058;21.618;2024-02-14T00:31:10;100845.63;;;1.51;91.13
78223;BME280;67497;53.058;21.618;2024-02-14T00:33:11;100834.38;;;1.43;90.61
78223;BME280;67497;53.058;21.618;2024-02-14T00:35:11;100844.19;;;1.44;90.34
78223;BME280;67497;53.058;21.618;2024-02-14T00:37:12;100846.28;;;1.39;90.72
78223;BME280;67497;53.058;21.618;2024-02-14T00:39:12;100853.44;;;1.40;90.26
78223;BME280;67497;53.058;21.618;2024-02-14T00:41:13;100842.00;;;1.35;90.38
78223;BME280;67497;53.058;21.618;2024-02-14T00:43:13;100843.84;;;1.35;90.36
78223;BME280;67497;53.058;21.618;2024-02-14T00:45:14;100848.50;;;1.31;90.72
78223;BME280;67497;53.058;21.618;2024-02-14T00:47:15;100849.56;;;1.29;90.22
78223;BME280;67497;53.058;21.618;2024-02-14T00:49:15;100847.09;;;1.24;90.54
78223;BME280;67497;53.058;21.618;2024-02-14T00:51:15;100854.38;;;1.22;90.72
78223;BME280;67497;53.058;21.618;2024-02-14T00:53:16;100845.66;;;1.17;90.79
78223;BME280;67497;53.058;21.618;2024-02-14T00:55:16;100847.59;;;1.15;90.55
78223;BME280;67497;53.058;21.618;2024-02-14T00:57:17;100838.88;;;1.10;90.70
78223;BME280;67497;53.058;21.618;2024-02-14T00:59:18;100852.25;;;1.11;90.45
78223;BME280;67497;53.058;21.618;2024-02-14T01:01:18;100849.81;;;1.07;90.03
78223;BME280;67497;53.058;21.618;2024-02-14T01:03:19;100842.81;;;1.03;90.45
78223;BME280;67497;53.058;21.618;2024-02-14T01:05:19;100858.06;;;1.04;90.76
78223;BME280;67497;53.058;21.618;2024-02-14T01:07:20;100842.28;;;0.96;90.76
78223;BME280;67497;53.058;21.618;2024-02-14T01:09:21;100841.72;;;0.90;90.60
78223;BME280;67497;53.058;21.618;2024-02-14T01:11:22;100849.97;;;0.87;90.58
78223;BME280;67497;53.058;21.618;2024-02-14T01:13:22;100854.41;;;0.88;90.75
78223;BME280;67497;53.058;21.618;2024-02-14T01:15:22;100845.75;;;0.81;90.51
78223;BME280;67497;53.058;21.618;2024-02-14T01:17:23;100856.34;;;0.86;91.16
78223;BME280;67497;53.058;21.618;2024-02-14T01:19:25;100863.38;;;0.88;91.10
78223;BME280;67497;53.058;21.618;2024-02-14T01:21:28;100854.66;;;0.83;91.33
78223;BME280;67497;53.058;21.618;2024-02-14T01:23:29;100859.09;;;0.84;91.06
78223;BME280;67497;53.058;21.618;2024-02-14T01:25:29;100867.28;;;0.83;91.01
78223;BME280;67497;53.058;21.618;2024-02-14T01:27:30;100861.16;;;0.79;90.90
78223;BME280;67497;53.058;21.618;2024-02-14T01:29:30;100858.41;;;0.81;91.42
78223;BME280;67497;53.058;21.618;2024-02-14T01:31:30;100857.44;;;0.82;91.80
78223;BME280;67497;53.058;21.618;2024-02-14T01:33:32;100865.50;;;0.82;91.79
78223;BME280;67497;53.058;21.618;2024-02-14T01:35:32;100856.78;;;0.77;91.76
78223;BME280;67497;53.058;21.618;2024-02-14T01:37:33;100859.44;;;0.78;91.21
78223;BME280;67497;53.058;21.618;2024-02-14T01:39:33;100866.47;;;0.81;91.19
78223;BME280;67497;53.058;21.618;2024-02-14T01:41:33;100869.34;;;0.78;91.43
78223;BME280;67497;53.058;21.618;2024-02-14T01:43:34;100865.84;;;0.76;91.70
78223;BME280;67497;53.058;21.618;2024-02-14T01:45:34;100868.56;;;0.76;91.75
78223;BME280;67497;53.058;21.618;2024-02-14T01:47:35;100865.84;;;0.76;91.73
78223;BME280;67497;53.058;21.618;2024-02-14T01:49:48;100866.94;;;0.72;91.64
78223;BME280;67497;53.058;21.618;2024-02-14T01:51:49;100870.56;;;0.71;91.38
78223;BME280;67497;53.058;21.618;2024-02-14T01:53:50;100870.81;;;0.66;91.56
78223;BME280;67497;53.058;21.618;2024-02-14T01:55:52;100871.13;;;0.60;91.38
78223;BME280;67497;53.058;21.618;2024-02-14T01:57:53;100870.44;;;0.56;91.45
78223;BME280;67497;53.058;21.618;2024-02-14T01:59:55;100870.50;;;0.55;92.29
78223;BME280;67497;53.058;21.618;2024-02-14T02:01:57;100866.75;;;0.57;91.85
78223;BME280;67497;53.058;21.618;2024-02-14T02:03:58;100874.94;;;0.56;91.50
78223;BME280;67497;53.058;21.618;2024-02-14T02:05:59;100868.66;;;0.55;91.66
78223;BME280;67497;53.058;21.618;2024-02-14T02:07:59;100867.66;;;0.58;91.08
78223;BME280;67497;53.058;21.618;2024-02-14T02:10:00;100865.88;;;0.57;90.98
78223;BME280;67497;53.058;21.618;2024-02-14T02:12:00;100866.13;;;0.52;91.17
78223;BME280;67497;53.058;21.618;2024-02-14T02:14:01;100874.22;;;0.52;91.01
78223;BME280;67497;53.058;21.618;2024-02-14T02:16:01;100876.13;;;0.50;91.04
78223;BME280;67497;53.058;21.618;2024-02-14T02:18:05;100865.94;;;0.38;90.81
78223;BME280;67497;53.058;21.618;2024-02-14T02:20:06;100874.66;;;0.43;90.86
78223;BME280;67497;53.058;21.618;2024-02-14T02:22:08;100880.22;;;0.40;90.43
78223;BME280;67497;53.058;21.618;2024-02-14T02:24:10;100880.66;;;0.31;90.75
78223;BME280;67497;53.058;21.618;2024-02-14T02:26:10;100872.09;;;0.23;91.19
78223;BME280;67497;53.058;21.618;2024-02-14T02:28:11;100876.69;;;0.21;91.34
78223;BME280;67497;53.058;21.618;2024-02-14T02:30:11;100881.44;;;0.16;90.96
78223;BME280;67497;53.058;21.618;2024-02-14T02:32:13;100883.28;;;0.14;90.81
78223;BME280;67497;53.058;21.618;2024-02-14T02:34:15;100875.97;;;-0.01;90.89
78223;BME280;67497;53.058;21.618;2024-02-14T02:36:16;100882.16;;;0.01;91.22
78223;BME280;67497;53.058;21.618;2024-02-14T02:38:17;100888.56;;;-0.02;90.79
78223;BME280;67497;53.058;21.618;2024-02-14T02:40:17;100888.84;;;-0.08;90.77
78223;BME280;67497;53.058;21.618;2024-02-14T02:42:18;100881.59;;;-0.06;90.94
78223;BME280;67497;53.058;21.618;2024-02-14T02:44:18;100880.72;;;-0.06;91.01
78223;BME280;67497;53.058;21.618;2024-02-14T02:46:18;100895.84;;;-0.04;90.92
78223;BME280;67497;53.058;21.618;2024-02-14T02:48:19;100877.19;;;-0.08;90.89
78223;BME280;67497;53.058;21.618;2024-02-14T02:50:23;100879.97;;;-0.10;91.30
78223;BME280;67497;53.058;21.618;2024-02-14T02:52:23;100884.47;;;-0.10;90.98
78223;BME280;67497;53.058;21.618;2024-02-14T02:54:24;100891.38;;;-0.05;91.35
78223;BME280;67497;53.058;21.618;2024-02-14T02:56:24;100903.03;;;-0.04;91.52
78223;BME280;67497;53.058;21.618;2024-02-14T02:58:27;100897.66;;;-0.04;91.34
78223;BME280;67497;53.058;21.618;2024-02-14T03:00:27;100896.13;;;-0.10;91.41
78223;BME280;67497;53.058;21.618;2024-02-14T03:02:28;100899.59;;;-0.08;91.34
78223;BME280;67497;53.058;21.618;2024-02-14T03:04:28;100898.16;;;-0.15;91.02
78223;BME280;67497;53.058;21.618;2024-02-14T03:06:31;100900.91;;;-0.16;91.21
78223;BME280;67497;53.058;21.618;2024-02-14T03:08:31;100900.84;;;-0.15;91.13
78223;BME280;67497;53.058;21.618;2024-02-14T03:10:34;100898.31;;;-0.18;91.10
78223;BME280;67497;53.058;21.618;2024-02-14T03:12:34;100894.88;;;-0.21;91.21
78223;BME280;67497;53.058;21.618;2024-02-14T03:14:35;100894.16;;;-0.25;91.19
78223;BME280;67497;53.058;21.618;2024-02-14T03:16:36;100904.97;;;-0.26;91.28
78223;BME280;67497;53.058;21.618;2024-02-14T03:18:37;100902.38;;;-0.28;91.80
78223;BME280;67497;53.058;21.618;2024-02-14T03:20:38;100911.34;;;-0.27;91.09
78223;BME280;67497;53.058;21.618;2024-02-14T03:22:40;100911.34;;;-0.27;91.05
78223;BME280;67497;53.058;21.618;2024-02-14T03:24:45;100904.53;;;-0.36;91.88
78223;BME280;67497;53.058;21.618;2024-02-14T03:26:47;100904.53;;;-0.36;91.48
78223;BME280;67497;53.058;21.618;2024-02-14T03:28:48;100910.06;;;-0.39;91.98
78223;BME280;67497;53.058;21.618;2024-02-14T03:30:49;100903.41;;;-0.30;91.92
78223;BME280;67497;53.058;21.618;2024-02-14T03:32:50;100906.88;;;-0.28;92.08
78223;BME280;67497;53.058;21.618;2024-02-14T03:34:50;100895.09;;;-0.26;91.66
78223;BME280;67497;53.058;21.618;2024-02-14T03:36:51;100902.66;;;-0.15;91.75
78223;BME280;67497;53.058;21.618;2024-02-14T03:38:52;100912.00;;;-0.22;91.65
78223;BME280;67497;53.058;21.618;2024-02-14T03:40:52;100908.78;;;-0.30;91.38
78223;BME280;67497;53.058;21.618;2024-02-14T03:42:53;100903.81;;;-0.39;91.61
78223;BME280;67497;53.058;21.618;2024-02-14T03:44:53;100903.00;;;-0.41;91.70
78223;BME280;67497;53.058;21.618;2024-02-14T03:47:00;100908.25;;;-0.38;91.69
78223;BME280;67497;53.058;21.618;2024-02-14T03:49:01;100914.72;;;-0.42;91.92
78223;BME280;67497;53.058;21.618;2024-02-14T03:51:02;100899.13;;;-0.54;91.94
78223;BME280;67497;53.058;21.618;2024-02-14T03:53:03;100908.75;;;-0.49;92.15
78223;BME280;67497;53.058;21.618;2024-02-14T03:55:05;100919.34;;;-0.46;92.01
78223;BME280;67497;53.058;21.618;2024-02-14T03:57:05;100917.84;;;-0.51;91.68
78223;BME280;67497;53.058;21.618;2024-02-14T03:59:08;100924.28;;;-0.55;91.84
78223;BME280;67497;53.058;21.618;2024-02-14T04:01:08;100921.72;;;-0.58;92.09
78223;BME280;67497;53.058;21.618;2024-02-14T04:03:12;100925.06;;;-0.53;91.52
78223;BME280;67497;53.058;21.618;2024-02-14T04:05:12;100931.56;;;-0.57;91.84
78223;BME280;67497;53.058;21.618;2024-02-14T04:07:12;100928.06;;;-0.59;91.25
78223;BME280;67497;53.058;21.618;2024-02-14T04:09:13;100931.56;;;-0.57;91.76
78223;BME280;67497;53.058;21.618;2024-02-14T04:11:13;100928.06;;;-0.59;91.99
78223;BME280;67497;53.058;21.618;2024-02-14T04:13:14;100935.44;;;-0.65;91.24
78223;BME280;67497;53.058;21.618;2024-02-14T04:15:15;100923.22;;;-0.72;91.62
78223;BME280;67497;53.058;21.618;2024-02-14T04:17:15;100925.09;;;-0.74;91.44
78223;BME280;67497;53.058;21.618;2024-02-14T04:19:16;100925.09;;;-0.74;91.98
78223;BME280;67497;53.058;21.618;2024-02-14T04:21:17;100926.00;;;-0.73;91.96
78223;BME280;67497;53.058;21.618;2024-02-14T04:23:17;100928.72;;;-0.75;92.17
78223;BME280;67497;53.058;21.618;2024-02-14T04:25:19;100933.31;;;-0.77;91.44
78223;BME280;67497;53.058;21.618;2024-02-14T04:27:19;100933.19;;;-0.74;91.67
78223;BME280;67497;53.058;21.618;2024-02-14T04:29:19;100929.66;;;-0.76;91.74
78223;BME280;67497;53.058;21.618;2024-02-14T04:31:20;100925.38;;;-0.80;90.87
78223;BME280;67497;53.058;21.618;2024-02-14T04:33:20;100935.25;;;-0.80;91.14
78223;BME280;67497;53.058;21.618;2024-02-14T04:35:21;100926.50;;;-0.85;90.79
78223;BME280;67497;53.058;21.618;2024-02-14T04:37:22;100938.28;;;-0.88;91.23
78223;BME280;67497;53.058;21.618;2024-02-14T04:39:22;100929.53;;;-0.93;91.22
78223;BME280;67497;53.058;21.618;2024-02-14T04:41:23;100942.44;;;-1.01;92.05
78223;BME280;67497;53.058;21.618;2024-02-14T04:43:23;100937.19;;;-1.04;91.95
78223;BME280;67497;53.058;21.618;2024-02-14T04:45:24;100938.66;;;-0.97;92.16
78223;BME280;67497;53.058;21.618;2024-02-14T04:47:24;100941.22;;;-0.94;91.75
78223;BME280;67497;53.058;21.618;2024-02-14T04:49:25;100935.97;;;-0.97;92.28
78223;BME280;67497;53.058;21.618;2024-02-14T04:51:26;100950.03;;;-0.90;92.26
78223;BME280;67497;53.058;21.618;2024-02-14T04:53:26;100958.88;;;-0.87;91.85
78223;BME280;67497;53.058;21.618;2024-02-14T04:55:27;100950.63;;;-0.84;92.60
78223;BME280;67497;53.058;21.618;2024-02-14T04:57:29;100950.78;;;-0.87;91.95
78223;BME280;67497;53.058;21.618;2024-02-14T04:59:29;100950.78;;;-0.87;92.05
78223;BME280;67497;53.058;21.618;2024-02-14T05:01:30;100955.41;;;-0.90;91.98
78223;BME280;67497;53.058;21.618;2024-02-14T05:03:30;100958.09;;;-0.90;92.25
78223;BME280;67497;53.058;21.618;2024-02-14T05:05:31;100953.78;;;-0.94;91.76
78223;BME280;67497;53.058;21.618;2024-02-14T05:07:33;100953.06;;;-0.98;91.57
78223;BME280;67497;53.058;21.618;2024-02-14T05:09:34;100957.47;;;-0.97;92.02
78223;BME280;67497;53.058;21.618;2024-02-14T05:11:35;100960.16;;;-0.97;91.97
78223;BME280;67497;53.058;21.618;2024-02-14T05:13:35;100959.28;;;-0.97;91.86
78223;BME280;67497;53.058;21.618;2024-02-14T05:15:38;100966.44;;;-0.96;91.76
78223;BME280;67497;53.058;21.618;2024-02-14T05:17:38;100964.75;;;-0.99;92.01
78223;BME280;67497;53.058;21.618;2024-02-14T05:19:41;100970.22;;;-1.00;91.86
78223;BME280;67497;53.058;21.618;2024-02-14T05:21:42;100964.00;;;-1.02;91.56
78223;BME280;67497;53.058;21.618;2024-02-14T05:23:42;100962.31;;;-1.05;91.15
78223;BME280;67497;53.058;21.618;2024-02-14T05:25:43;100959.91;;;-1.11;91.14
78223;BME280;67497;53.058;21.618;2024-02-14T05:27:44;100976.84;;;-1.09;91.74
78223;BME280;67497;53.058;21.618;2024-02-14T05:29:47;100966.00;;;-1.07;91.50
78223;BME280;67497;53.058;21.618;2024-02-14T05:31:47;100972.91;;;-1.00;92.18
78223;BME280;67497;53.058;21.618;2024-02-14T05:33:49;100977.38;;;-1.01;91.66
78223;BME280;67497;53.058;21.618;2024-02-14T05:35:49;100966.56;;;-0.99;91.26
78223;BME280;67497;53.058;21.618;2024-02-14T05:37:50;100969.88;;;-0.93;91.20
78223;BME280;67497;53.058;21.618;2024-02-14T05:39:51;100967.94;;;-0.89;91.31
78223;BME280;67497;53.058;21.618;2024-02-14T05:41:51;100970.53;;;-0.88;92.10
78223;BME280;67497;53.058;21.618;2024-02-14T05:43:54;100982.06;;;-0.84;92.89
78223;BME280;67497;53.058;21.618;2024-02-14T05:45:54;100981.09;;;-0.83;92.72
78223;BME280;67497;53.058;21.618;2024-02-14T05:47:55;100987.09;;;-0.77;92.31
78223;BME280;67497;53.058;21.618;2024-02-14T05:49:55;100989.53;;;-0.71;91.99
78223;BME280;67497;53.058;21.618;2024-02-14T05:51:56;100985.28;;;-0.76;91.69
78223;BME280;67497;53.058;21.618;2024-02-14T05:53:56;100984.41;;;-0.77;91.29
78223;BME280;67497;53.058;21.618;2024-02-14T05:55:57;100978.41;;;-0.83;91.48
78223;BME280;67497;53.058;21.618;2024-02-14T05:57:57;100972.16;;;-0.84;92.03
78223;BME280;67497;53.058;21.618;2024-02-14T05:59:59;100973.91;;;-0.83;92.10
78223;BME280;67497;53.058;21.618;2024-02-14T06:01:59;100982.91;;;-0.84;91.64
78223;BME280;67497;53.058;21.618;2024-02-14T06:03:59;100986.34;;;-0.80;92.07
78223;BME280;67497;53.058;21.618;2024-02-14T06:06:00;100980.91;;;-0.79;91.22
78223;BME280;67497;53.058;21.618;2024-02-14T06:08:01;100987.78;;;-0.72;91.55
78223;BME280;67497;53.058;21.618;2024-02-14T06:10:03;100986.97;;;-0.74;91.76
78223;BME280;67497;53.058;21.618;2024-02-14T06:12:04;100981.19;;;-0.65;91.67
78223;BME280;67497;53.058;21.618;2024-02-14T06:14:08;100989.75;;;-0.55;91.65
78223;BME280;67497;53.058;21.618;2024-02-14T06:16:09;100995.44;;;-0.42;90.97
78223;BME280;67497;53.058;21.618;2024-02-14T06:18:11;100980.91;;;-0.38;90.95
78223;BME280;67497;53.058;21.618;2024-02-14T06:20:12;100987.75;;;-0.31;90.44
78223;BME280;67497;53.058;21.618;2024-02-14T06:22:12;100989.97;;;-0.21;90.37
78223;BME280;67497;53.058;21.618;2024-02-14T06:24:22;100990.44;;;-0.11;90.32
78223;BME280;67497;53.058;21.618;2024-02-14T06:26:23;100990.16;;;-0.05;90.07
78223;BME280;67497;53.058;21.618;2024-02-14T06:28:23;100991.81;;;-0.03;90.33
78223;BME280;67497;53.058;21.618;2024-02-14T06:30:24;101001.16;;;0.09;89.55
78223;BME280;67497;53.058;21.618;2024-02-14T06:32:24;100989.00;;;0.19;89.17
78223;BME280;67497;53.058;21.618;2024-02-14T06:34:24;100994.25;;;0.41;88.55
78223;BME280;67497;53.058;21.618;2024-02-14T06:36:26;101000.97;;;0.51;88.05
78223;BME280;67497;53.058;21.618;2024-02-14T06:38:26;100995.44;;;0.73;88.51
78223;BME280;67497;53.058;21.618;2024-02-14T06:40:27;101002.44;;;0.94;88.09
78223;BME280;67497;53.058;21.618;2024-02-14T06:42:29;100988.28;;;1.25;87.66
78223;BME280;67497;53.058;21.618;2024-02-14T06:44:30;101000.28;;;1.53;85.68
78223;BME280;67497;53.058;21.618;2024-02-14T06:46:30;101006.69;;;1.68;84.36
78223;BME280;67497;53.058;21.618;2024-02-14T06:48:30;101006.69;;;1.85;85.52
78223;BME280;67497;53.058;21.618;2024-02-14T06:50:31;101003.72;;;1.90;84.80
78223;BME280;67497;53.058;21.618;2024-02-14T06:52:31;101005.84;;;2.00;83.85
78223;BME280;67497;53.058;21.618;2024-02-14T06:54:32;101008.50;;;1.85;85.16
78223;BME280;67497;53.058;21.618;2024-02-14T06:56:32;101009.13;;;1.90;85.03
78223;BME280;67497;53.058;21.618;2024-02-14T06:58:33;101014.38;;;1.93;84.95
78223;BME280;67497;53.058;21.618;2024-02-14T07:00:33;101007.56;;;2.03;83.98
78223;BME280;67497;53.058;21.618;2024-02-14T07:02:34;101000.81;;;1.94;84.27
78223;BME280;67497;53.058;21.618;2024-02-14T07:04:34;101010.34;;;2.17;83.36
78223;BME280;67497;53.058;21.618;2024-02-14T07:06:35;101007.59;;;2.34;82.78
78223;BME280;67497;53.058;21.618;2024-02-14T07:08:36;101018.59;;;2.31;82.07
78223;BME280;67497;53.058;21.618;2024-02-14T07:10:36;101025.00;;;2.61;82.55
78223;BME280;67497;53.058;21.618;2024-02-14T07:12:36;101014.56;;;2.86;81.15
78223;BME280;67497;53.058;21.618;2024-02-14T07:14:37;101023.97;;;3.11;80.55
78223;BME280;67497;53.058;21.618;2024-02-14T07:16:37;101022.78;;;3.30;79.59
78223;BME280;67497;53.058;21.618;2024-02-14T07:18:38;101026.41;;;3.45;79.80
78223;BME280;67497;53.058;21.618;2024-02-14T07:20:38;101023.59;;;3.62;78.57
78223;BME280;67497;53.058;21.618;2024-02-14T07:22:39;101024.59;;;3.75;78.37
78223;BME280;67497;53.058;21.618;2024-02-14T07:24:39;101022.41;;;4.10;76.71
78223;BME280;67497;53.058;21.618;2024-02-14T07:26:39;101029.69;;;4.23;76.72
78223;BME280;67497;53.058;21.618;2024-02-14T07:28:41;101029.00;;;4.34;76.24
78223;BME280;67497;53.058;21.618;2024-02-14T07:30:42;101023.09;;;4.70;75.77
78223;BME280;67497;53.058;21.618;2024-02-14T07:32:43;101028.34;;;4.45;75.83
78223;BME280;67497;53.058;21.618;2024-02-14T07:34:44;101018.56;;;4.56;75.40
78223;BME280;67497;53.058;21.618;2024-02-14T07:36:44;101016.72;;;4.57;76.25
78223;BME280;67497;53.058;21.618;2024-02-14T07:38:46;101017.56;;;4.71;75.69
78223;BME280;67497;53.058;21.618;2024-02-14T07:40:47;101019.13;;;4.61;74.75
78223;BME280;67497;53.058;21.618;2024-02-14T07:42:47;101017.47;;;4.73;74.66
78223;BME280;67497;53.058;21.618;2024-02-14T07:44:48;101018.78;;;5.21;74.41
78223;BME280;67497;53.058;21.618;2024-02-14T07:46:51;101019.53;;;5.50;73.91
78223;BME280;67497;53.058;21.618;2024-02-14T07:48:53;101019.69;;;6.25;70.20
78223;BME280;67497;53.058;21.618;2024-02-14T07:50:53;101021.56;;;6.37;69.33
78223;BME280;67497;53.058;21.618;2024-02-14T07:52:54;101011.41;;;6.65;70.09
78223;BME280;67497;53.058;21.618;2024-02-14T07:54:55;101017.81;;;6.63;69.65
78223;BME280;67497;53.058;21.618;2024-02-14T07:56:56;101015.75;;;6.54;69.38
78223;BME280;67497;53.058;21.618;2024-02-14T07:58:56;101017.81;;;6.00;69.95
78223;BME280;67497;53.058;21.618;2024-02-14T08:00:56;101022.94;;;6.30;70.79
78223;BME280;67497;53.058;21.618;2024-02-14T08:02:57;101026.22;;;6.35;70.94
78223;BME280;67497;53.058;21.618;2024-02-14T08:04:57;101023.13;;;6.78;70.51
78223;BME280;67497;53.058;21.618;2024-02-14T08:06:57;101027.38;;;7.18;68.09
78223;BME280;67497;53.058;21.618;2024-02-14T08:08:58;101036.53;;;7.64;65.57
78223;BME280;67497;53.058;21.618;2024-02-14T08:11:02;101036.66;;;7.98;63.79
78223;BME280;67497;53.058;21.618;2024-02-14T08:13:02;101030.03;;;8.24;63.98
78223;BME280;67497;53.058;21.618;2024-02-14T08:15:04;101030.84;;;8.37;64.50
78223;BME280;67497;53.058;21.618;2024-02-14T08:17:06;101030.59;;;8.40;64.80
78223;BME280;67497;53.058;21.618;2024-02-14T08:19:07;101020.91;;;8.69;62.65
78223;BME280;67497;53.058;21.618;2024-02-14T08:21:07;101020.28;;;8.99;61.97
78223;BME280;67497;53.058;21.618;2024-02-14T08:23:08;101028.47;;;8.99;61.53
78223;BME280;67497;53.058;21.618;2024-02-14T08:25:08;101029.78;;;9.38;60.17
78223;BME280;67497;53.058;21.618;2024-02-14T08:27:09;101020.03;;;8.91;60.01
78223;BME280;67497;53.058;21.618;2024-02-14T08:29:09;101028.09;;;8.81;61.10
78223;BME280;67497;53.058;21.618;2024-02-14T08:31:11;101030.34;;;8.32;62.19
78223;BME280;67497;53.058;21.618;2024-02-14T08:33:12;101034.94;;;7.97;62.98
78223;BME280;67497;53.058;21.618;2024-02-14T08:35:13;101037.66;;;7.97;63.84
78223;BME280;67497;53.058;21.618;2024-02-14T08:37:14;101043.72;;;8.00;64.60
78223;BME280;67497;53.058;21.618;2024-02-14T08:39:14;101035.56;;;8.57;64.29
78223;BME280;67497;53.058;21.618;2024-02-14T08:41:14;101034.72;;;8.22;65.14
78223;BME280;67497;53.058;21.618;2024-02-14T08:43:15;101026.69;;;7.86;66.84
78223;BME280;67497;53.058;21.618;2024-02-14T08:45:15;101035.47;;;8.13;67.44
78223;BME280;67497;53.058;21.618;2024-02-14T08:47:16;101029.50;;;8.08;64.41
78223;BME280;67497;53.058;21.618;2024-02-14T08:49:17;101037.66;;;7.97;65.21
78223;BME280;67497;53.058;21.618;2024-02-14T08:51:17;101034.84;;;7.74;67.75
78223;BME280;67497;53.058;21.618;2024-02-14T08:53:20;101041.03;;;7.76;65.60
78223;BME280;67497;53.058;21.618;2024-02-14T08:55:22;101033.75;;;7.53;66.46
78223;BME280;67497;53.058;21.618;2024-02-14T08:57:22;101038.34;;;7.29;66.71
78223;BME280;67497;53.058;21.618;2024-02-14T08:59:23;101036.72;;;6.90;69.75
78223;BME280;67497;53.058;21.618;2024-02-14T09:01:24;101038.41;;;6.55;69.93
78223;BME280;67497;53.058;21.618;2024-02-14T09:03:26;101042.97;;;6.67;70.95
78223;BME280;67497;53.058;21.618;2024-02-14T09:05:26;101034.59;;;6.70;71.26
78223;BME280;67497;53.058;21.618;2024-02-14T09:07:28;101041.78;;;6.58;70.97
78223;BME280;67497;53.058;21.618;2024-02-14T09:09:28;101038.59;;;6.77;71.11
78223;BME280;67497;53.058;21.618;2024-02-14T09:11:29;101039.03;;;6.71;71.38
78223;BME280;67497;53.058;21.618;2024-02-14T09:13:29;101040.97;;;6.82;70.68
78223;BME280;67497;53.058;21.618;2024-02-14T09:15:30;101038.13;;;6.96;70.24
78223;BME280;67497;53.058;21.618;2024-02-14T09:17:31;101032.44;;;6.99;69.37
78223;BME280;67497;53.058;21.618;2024-02-14T09:19:31;101038.06;;;7.08;70.54
78223;BME280;67497;53.058;21.618;2024-02-14T09:21:32;101034.06;;;7.01;70.30
78223;BME280;67497;53.058;21.618;2024-02-14T09:23:34;101043.34;;;6.99;69.80
78223;BME280;67497;53.058;21.618;2024-02-14T09:25:34;101036.75;;;7.14;69.98
78223;BME280;67497;53.058;21.618;2024-02-14T09:27:35;101039.94;;;7.08;68.60
78223;BME280;67497;53.058;21.618;2024-02-14T09:29:35;101032.19;;;7.38;68.53
78223;BME280;67497;53.058;21.618;2024-02-14T09:31:38;101040.09;;;7.54;67.25
78223;BME280;67497;53.058;21.618;2024-02-14T09:33:38;101035.22;;;7.70;65.71
78223;BME280;67497;53.058;21.618;2024-02-14T09:35:40;101029.47;;;7.62;66.37
78223;BME280;67497;53.058;21.618;2024-02-14T09:37:44;101032.94;;;7.64;67.02
78223;BME280;67497;53.058;21.618;2024-02-14T09:39:45;101036.88;;;7.83;65.39
78223;BME280;67497;53.058;21.618;2024-02-14T09:41:51;101038.59;;;7.84;64.15
78223;BME280;67497;53.058;21.618;2024-02-14T09:43:54;101037.09;;;7.80;65.03
78223;BME280;67497;53.058;21.618;2024-02-14T09:45:54;101035.13;;;7.82;64.34
78223;BME280;67497;53.058;21.618;2024-02-14T09:47:56;101026.19;;;7.80;65.29
78223;BME280;67497;53.058;21.618;2024-02-14T09:49:57;101036.63;;;7.87;65.01
78223;BME280;67497;53.058;21.618;2024-02-14T09:51:58;101032.44;;;7.94;63.56
78223;BME280;67497;53.058;21.618;2024-02-14T09:54:02;101031.44;;;8.29;63.17
78223;BME280;67497;53.058;21.618;2024-02-14T09:56:04;101035.44;;;8.59;63.15
78223;BME280;67497;53.058;21.618;2024-02-14T09:58:06;101028.00;;;8.94;61.25
78223;BME280;67497;53.058;21.618;2024-02-14T10:00:07;101025.50;;;8.69;61.47
78223;BME280;67497;53.058;21.618;2024-02-14T10:02:09;101026.13;;;8.94;62.31
78223;BME280;67497;53.058;21.618;2024-02-14T10:04:10;101025.34;;;9.03;60.65
78223;BME280;67497;53.058;21.618;2024-02-14T10:06:11;101015.44;;;9.14;60.46
78223;BME280;67497;53.058;21.618;2024-02-14T10:08:11;101017.78;;;8.96;60.90
78223;BME280;67497;53.058;21.618;2024-02-14T10:10:12;101024.00;;;8.87;60.63
78223;BME280;67497;53.058;21.618;2024-02-14T10:12:14;101018.69;;;8.63;61.72
78223;BME280;67497;53.058;21.618;2024-02-14T10:14:14;101017.22;;;8.70;62.00
78223;BME280;67497;53.058;21.618;2024-02-14T10:16:15;101019.69;;;8.62;61.68
78223;BME280;67497;53.058;21.618;2024-02-14T10:18:15;101018.16;;;8.36;61.04
78223;BME280;67497;53.058;21.618;2024-02-14T10:20:17;101017.44;;;8.45;60.70
78223;BME280;67497;53.058;21.618;2024-02-14T10:22:18;101017.09;;;8.15;62.00
78223;BME280;67497;53.058;21.618;2024-02-14T10:24:18;101018.09;;;8.25;62.28
78223;BME280;67497;53.058;21.618;2024-02-14T10:26:20;101017.00;;;8.16;62.33
78223;BME280;67497;53.058;21.618;2024-02-14T10:28:21;101009.28;;;8.10;62.87